sensor_id;sensor_type;location;lat;lon;timestamp;P1;durP1;ratioP1;P2;durP2;ratioP2
69392;SDS011;56582;44.624;20.378;2023-09-19T00:00:37;9.55;;;5.32;;
69392;SDS011;56582;44.624;20.378;2023-09-19T00:03:03;8.80;;;4.63;;
69392;SDS011;56582;44.624;20.378;2023-09-19T00:05:34;7.95;;;4.72;;
69392;SDS011;56582;44.624;20.378;2023-09-19T00:08:01;7.57;;;4.57;;
69392;SDS011;56582;44.624;20.378;2023-09-19T00:10:31;7.60;;;4.43;;
69392;SDS011;56582;44.624;20.378;2023-09-19T00:13:00;9.85;;;4.82;;
69392;SDS011;56582;44.624;20.378;2023-09-19T00:15:31;8.00;;;5.00;;
69392;SDS011;56582;44.624;20.378;2023-09-19T00:18:01;10.15;;;5.22;;
69392;SDS011;56582;44.624;20.378;2023-09-19T00:20:26;7.43;;;4.70;;
69392;SDS011;56582;44.624;20.378;2023-09-19T00:22:53;9.50;;;5.07;;
69392;SDS011;56582;44.624;20.378;2023-09-19T00:25:19;7.15;;;4.53;;
69392;SDS011;56582;44.624;20.378;2023-09-19T00:27:45;7.30;;;4.80;;
69392;SDS011;56582;44.624;20.378;2023-09-19T00:30:12;7.75;;;4.47;;
69392;SDS011;56582;44.624;20.378;2023-09-19T00:32:44;7.70;;;4.65;;
69392;SDS011;56582;44.624;20.378;2023-09-19T00:35:12;9.85;;;5.03;;
69392;SDS011;56582;44.624;20.378;2023-09-19T00:37:39;8.07;;;5.40;;
69392;SDS011;56582;44.624;20.378;2023-09-19T00:40:05;7.50;;;5.00;;
69392;SDS011;56582;44.624;20.378;2023-09-19T00:42:37;6.88;;;4.60;;
69392;SDS011;56582;44.624;20.378;2023-09-19T00:45:04;8.25;;;4.93;;
69392;SDS011;56582;44.624;20.378;2023-09-19T00:47:31;8.43;;;5.30;;
69392;SDS011;56582;44.624;20.378;2023-09-19T00:49:56;8.10;;;5.18;;
69392;SDS011;56582;44.624;20.378;2023-09-19T00:52:22;7.97;;;5.00;;
69392;SDS011;56582;44.624;20.378;2023-09-19T00:54:48;8.18;;;5.07;;
69392;SDS011;56582;44.624;20.378;2023-09-19T00:57:14;7.50;;;4.93;;
69392;SDS011;56582;44.624;20.378;2023-09-19T00:59:44;8.88;;;5.07;;
69392;SDS011;56582;44.624;20.378;2023-09-19T01:02:11;7.13;;;5.15;;
69392;SDS011;56582;44.624;20.378;2023-09-19T01:04:39;8.20;;;4.80;;
69392;SDS011;56582;44.624;20.378;2023-09-19T01:07:05;9.02;;;5.03;;
69392;SDS011;56582;44.624;20.378;2023-09-19T01:09:33;7.50;;;5.27;;
69392;SDS011;56582;44.624;20.378;2023-09-19T01:12:01;8.93;;;4.95;;
69392;SDS011;56582;44.624;20.378;2023-09-19T01:22:37;7.83;;;4.90;;
69392;SDS011;56582;44.624;20.378;2023-09-19T01:31:01;7.00;;;4.40;;
69392;SDS011;56582;44.624;20.378;2023-09-19T01:33:28;7.75;;;4.90;;
69392;SDS011;56582;44.624;20.378;2023-09-19T01:36:16;8.27;;;4.83;;
69392;SDS011;56582;44.624;20.378;2023-09-19T01:38:41;8.77;;;5.03;;
69392;SDS011;56582;44.624;20.378;2023-09-19T01:41:11;8.50;;;5.37;;
69392;SDS011;56582;44.624;20.378;2023-09-19T01:43:42;7.77;;;5.00;;
69392;SDS011;56582;44.624;20.378;2023-09-19T01:46:30;9.95;;;4.70;;
69392;SDS011;56582;44.624;20.378;2023-09-19T01:51:37;9.27;;;5.20;;
69392;SDS011;56582;44.624;20.378;2023-09-19T01:54:04;8.43;;;5.18;;
69392;SDS011;56582;44.624;20.378;2023-09-19T01:56:45;8.02;;;5.10;;
69392;SDS011;56582;44.624;20.378;2023-09-19T01:59:18;11.25;;;5.13;;
69392;SDS011;56582;44.624;20.378;2023-09-19T02:01:49;10.13;;;5.53;;
69392;SDS011;56582;44.624;20.378;2023-09-19T02:04:18;7.90;;;4.93;;
69392;SDS011;56582;44.624;20.378;2023-09-19T02:06:43;7.33;;;5.20;;
69392;SDS011;56582;44.624;20.378;2023-09-19T02:09:12;10.02;;;4.80;;
69392;SDS011;56582;44.624;20.378;2023-09-19T02:11:39;9.38;;;5.10;;
69392;SDS011;56582;44.624;20.378;2023-09-19T02:14:06;8.35;;;4.90;;
69392;SDS011;56582;44.624;20.378;2023-09-19T02:16:33;9.65;;;5.70;;
69392;SDS011;56582;44.624;20.378;2023-09-19T02:18:59;7.35;;;4.93;;
69392;SDS011;56582;44.624;20.378;2023-09-19T02:21:25;8.90;;;5.00;;
69392;SDS011;56582;44.624;20.378;2023-09-19T02:23:54;9.13;;;5.40;;
69392;SDS011;56582;44.624;20.378;2023-09-19T02:26:20;8.32;;;5.30;;
69392;SDS011;56582;44.624;20.378;2023-09-19T02:28:47;8.50;;;5.28;;
69392;SDS011;56582;44.624;20.378;2023-09-19T02:31:12;7.20;;;5.07;;
69392;SDS011;56582;44.624;20.378;2023-09-19T02:33:37;8.73;;;5.33;;
69392;SDS011;56582;44.624;20.378;2023-09-19T02:36:03;9.48;;;5.10;;
69392;SDS011;56582;44.624;20.378;2023-09-19T02:38:29;9.30;;;5.57;;
69392;SDS011;56582;44.624;20.378;2023-09-19T02:40:55;9.98;;;5.40;;
69392;SDS011;56582;44.624;20.378;2023-09-19T02:43:21;7.63;;;5.17;;
69392;SDS011;56582;44.624;20.378;2023-09-19T02:45:47;9.40;;;5.35;;
69392;SDS011;56582;44.624;20.378;2023-09-19T02:48:14;8.52;;;5.75;;
69392;SDS011;56582;44.624;20.378;2023-09-19T02:50:40;10.97;;;5.97;;
69392;SDS011;56582;44.624;20.378;2023-09-19T02:53:07;8.68;;;5.43;;
69392;SDS011;56582;44.624;20.378;2023-09-19T02:55:32;8.50;;;5.47;;
69392;SDS011;56582;44.624;20.378;2023-09-19T02:57:59;8.60;;;5.70;;
69392;SDS011;56582;44.624;20.378;2023-09-19T03:00:25;9.50;;;6.00;;
69392;SDS011;56582;44.624;20.378;2023-09-19T03:02:55;8.93;;;5.72;;
69392;SDS011;56582;44.624;20.378;2023-09-19T03:05:21;9.73;;;5.88;;
69392;SDS011;56582;44.624;20.378;2023-09-19T03:07:48;9.93;;;5.00;;
69392;SDS011;56582;44.624;20.378;2023-09-19T03:10:16;7.90;;;5.38;;
69392;SDS011;56582;44.624;20.378;2023-09-19T03:12:44;8.30;;;4.60;;
69392;SDS011;56582;44.624;20.378;2023-09-19T03:15:09;9.32;;;5.75;;
69392;SDS011;56582;44.624;20.378;2023-09-19T03:17:35;8.47;;;4.73;;
69392;SDS011;56582;44.624;20.378;2023-09-19T03:20:02;8.40;;;5.05;;
69392;SDS011;56582;44.624;20.378;2023-09-19T03:22:29;8.75;;;5.63;;
69392;SDS011;56582;44.624;20.378;2023-09-19T03:24:54;8.63;;;5.57;;
69392;SDS011;56582;44.624;20.378;2023-09-19T03:27:20;8.60;;;5.27;;
69392;SDS011;56582;44.624;20.378;2023-09-19T03:29:46;9.30;;;5.32;;
69392;SDS011;56582;44.624;20.378;2023-09-19T03:32:11;9.13;;;5.27;;
69392;SDS011;56582;44.624;20.378;2023-09-19T03:34:37;7.32;;;4.93;;
69392;SDS011;56582;44.624;20.378;2023-09-19T03:37:05;8.23;;;5.38;;
69392;SDS011;56582;44.624;20.378;2023-09-19T03:39:31;10.17;;;5.53;;
69392;SDS011;56582;44.624;20.378;2023-09-19T03:41:57;8.70;;;5.05;;
69392;SDS011;56582;44.624;20.378;2023-09-19T03:44:23;10.40;;;5.23;;
69392;SDS011;56582;44.624;20.378;2023-09-19T03:46:48;11.57;;;6.60;;
69392;SDS011;56582;44.624;20.378;2023-09-19T03:49:13;9.73;;;5.87;;
69392;SDS011;56582;44.624;20.378;2023-09-19T03:51:39;9.03;;;5.97;;
69392;SDS011;56582;44.624;20.378;2023-09-19T03:54:06;8.70;;;5.65;;
69392;SDS011;56582;44.624;20.378;2023-09-19T03:56:32;8.70;;;5.53;;
69392;SDS011;56582;44.624;20.378;2023-09-19T03:58:57;8.37;;;5.33;;
69392;SDS011;56582;44.624;20.378;2023-09-19T04:01:23;10.53;;;5.60;;
69392;SDS011;56582;44.624;20.378;2023-09-19T04:03:48;9.23;;;5.45;;
69392;SDS011;56582;44.624;20.378;2023-09-19T04:06:17;13.27;;;5.67;;
69392;SDS011;56582;44.624;20.378;2023-09-19T04:08:43;8.98;;;5.45;;
69392;SDS011;56582;44.624;20.378;2023-09-19T04:11:09;7.90;;;5.03;;
69392;SDS011;56582;44.624;20.378;2023-09-19T04:13:35;11.20;;;5.05;;
69392;SDS011;56582;44.624;20.378;2023-09-19T04:16:01;11.17;;;5.87;;
69392;SDS011;56582;44.624;20.378;2023-09-19T04:18:28;10.07;;;6.57;;
69392;SDS011;56582;44.624;20.378;2023-09-19T04:20:56;10.90;;;6.32;;
69392;SDS011;56582;44.624;20.378;2023-09-19T04:23:22;8.20;;;5.37;;
69392;SDS011;56582;44.624;20.378;2023-09-19T04:25:47;8.90;;;5.63;;
69392;SDS011;56582;44.624;20.378;2023-09-19T04:28:13;10.90;;;6.07;;
69392;SDS011;56582;44.624;20.378;2023-09-19T04:30:40;8.82;;;6.00;;
69392;SDS011;56582;44.624;20.378;2023-09-19T04:33:06;9.75;;;5.97;;
69392;SDS011;56582;44.624;20.378;2023-09-19T04:35:31;10.33;;;6.20;;
69392;SDS011;56582;44.624;20.378;2023-09-19T04:37:57;9.47;;;5.53;;
69392;SDS011;56582;44.624;20.378;2023-09-19T04:40:23;10.70;;;5.30;;
69392;SDS011;56582;44.624;20.378;2023-09-19T04:42:58;10.55;;;6.15;;
69392;SDS011;56582;44.624;20.378;2023-09-19T04:45:25;10.75;;;6.32;;
69392;SDS011;56582;44.624;20.378;2023-09-19T04:47:54;9.83;;;5.67;;
69392;SDS011;56582;44.624;20.378;2023-09-19T04:50:21;10.98;;;6.03;;
69392;SDS011;56582;44.624;20.378;2023-09-19T04:52:51;9.10;;;5.40;;
69392;SDS011;56582;44.624;20.378;2023-09-19T04:55:17;9.80;;;5.72;;
69392;SDS011;56582;44.624;20.378;2023-09-19T04:57:44;9.82;;;5.80;;
69392;SDS011;56582;44.624;20.378;2023-09-19T05:00:14;9.43;;;5.77;;
69392;SDS011;56582;44.624;20.378;2023-09-19T05:02:41;10.02;;;5.97;;
69392;SDS011;56582;44.624;20.378;2023-09-19T05:05:08;10.30;;;5.80;;
69392;SDS011;56582;44.624;20.378;2023-09-19T05:07:35;9.85;;;6.50;;
69392;SDS011;56582;44.624;20.378;2023-09-19T05:10:01;11.93;;;5.70;;
69392;SDS011;56582;44.624;20.378;2023-09-19T05:12:30;11.95;;;6.35;;
69392;SDS011;56582;44.624;20.378;2023-09-19T05:14:57;10.10;;;6.38;;
69392;SDS011;56582;44.624;20.378;2023-09-19T05:17:22;9.37;;;6.50;;
69392;SDS011;56582;44.624;20.378;2023-09-19T05:19:49;11.38;;;6.15;;
69392;SDS011;56582;44.624;20.378;2023-09-19T05:22:15;9.97;;;6.40;;
69392;SDS011;56582;44.624;20.378;2023-09-19T05:24:40;10.20;;;6.80;;
69392;SDS011;56582;44.624;20.378;2023-09-19T05:27:06;8.70;;;6.40;;
69392;SDS011;56582;44.624;20.378;2023-09-19T05:29:32;10.53;;;6.50;;
69392;SDS011;56582;44.624;20.378;2023-09-19T05:31:58;8.70;;;6.25;;
69392;SDS011;56582;44.624;20.378;2023-09-19T05:34:24;12.23;;;6.35;;
69392;SDS011;56582;44.624;20.378;2023-09-19T05:36:53;11.27;;;6.35;;
69392;SDS011;56582;44.624;20.378;2023-09-19T05:39:19;11.33;;;6.30;;
69392;SDS011;56582;44.624;20.378;2023-09-19T05:41:45;9.90;;;6.40;;
69392;SDS011;56582;44.624;20.378;2023-09-19T05:44:15;8.95;;;6.05;;
69392;SDS011;56582;44.624;20.378;2023-09-19T05:46:40;11.50;;;7.20;;
69392;SDS011;56582;44.624;20.378;2023-09-19T05:49:06;8.93;;;6.40;;
69392;SDS011;56582;44.624;20.378;2023-09-19T05:51:31;9.50;;;6.93;;
69392;SDS011;56582;44.624;20.378;2023-09-19T05:53:57;11.27;;;6.50;;
69392;SDS011;56582;44.624;20.378;2023-09-19T05:56:23;9.90;;;6.65;;
69392;SDS011;56582;44.624;20.378;2023-09-19T05:58:48;9.00;;;5.23;;
69392;SDS011;56582;44.624;20.378;2023-09-19T06:01:14;9.85;;;6.50;;
69392;SDS011;56582;44.624;20.378;2023-09-19T06:03:40;9.38;;;5.93;;
69392;SDS011;56582;44.624;20.378;2023-09-19T06:06:05;9.63;;;5.70;;
69392;SDS011;56582;44.624;20.378;2023-09-19T06:08:31;14.37;;;6.67;;
69392;SDS011;56582;44.624;20.378;2023-09-19T06:10:58;10.13;;;6.35;;
69392;SDS011;56582;44.624;20.378;2023-09-19T06:13:24;8.27;;;6.18;;
69392;SDS011;56582;44.624;20.378;2023-09-19T06:15:52;10.73;;;6.53;;
69392;SDS011;56582;44.624;20.378;2023-09-19T06:18:21;9.23;;;6.77;;
69392;SDS011;56582;44.624;20.378;2023-09-19T06:20:51;12.30;;;6.20;;
69392;SDS011;56582;44.624;20.378;2023-09-19T06:23:17;10.20;;;6.13;;
69392;SDS011;56582;44.624;20.378;2023-09-19T06:25:43;10.03;;;6.03;;
69392;SDS011;56582;44.624;20.378;2023-09-19T06:28:09;12.27;;;6.78;;
69392;SDS011;56582;44.624;20.378;2023-09-19T06:30:37;10.15;;;6.10;;
69392;SDS011;56582;44.624;20.378;2023-09-19T06:33:06;9.93;;;6.30;;
69392;SDS011;56582;44.624;20.378;2023-09-19T06:35:32;10.43;;;5.83;;
69392;SDS011;56582;44.624;20.378;2023-09-19T06:38:01;9.57;;;6.10;;
69392;SDS011;56582;44.624;20.378;2023-09-19T06:40:28;10.48;;;6.75;;
69392;SDS011;56582;44.624;20.378;2023-09-19T06:42:56;9.67;;;6.10;;
69392;SDS011;56582;44.624;20.378;2023-09-19T06:45:22;9.02;;;5.78;;
69392;SDS011;56582;44.624;20.378;2023-09-19T06:47:51;14.27;;;6.30;;
69392;SDS011;56582;44.624;20.378;2023-09-19T06:50:17;9.73;;;5.47;;
69392;SDS011;56582;44.624;20.378;2023-09-19T06:52:45;10.30;;;6.97;;
69392;SDS011;56582;44.624;20.378;2023-09-19T06:55:13;9.40;;;6.25;;
69392;SDS011;56582;44.624;20.378;2023-09-19T06:57:41;9.75;;;6.10;;
69392;SDS011;56582;44.624;20.378;2023-09-19T07:00:08;10.27;;;6.43;;
69392;SDS011;56582;44.624;20.378;2023-09-19T07:02:40;13.15;;;6.18;;
69392;SDS011;56582;44.624;20.378;2023-09-19T07:05:08;10.33;;;6.37;;
69392;SDS011;56582;44.624;20.378;2023-09-19T07:07:34;9.57;;;6.32;;
69392;SDS011;56582;44.624;20.378;2023-09-19T07:10:01;10.25;;;5.90;;
69392;SDS011;56582;44.624;20.378;2023-09-19T07:12:27;9.53;;;6.33;;
69392;SDS011;56582;44.624;20.378;2023-09-19T07:14:52;10.82;;;6.40;;
69392;SDS011;56582;44.624;20.378;2023-09-19T07:17:19;10.97;;;6.80;;
69392;SDS011;56582;44.624;20.378;2023-09-19T07:19:44;9.82;;;5.97;;
69392;SDS011;56582;44.624;20.378;2023-09-19T07:22:10;10.90;;;5.73;;
69392;SDS011;56582;44.624;20.378;2023-09-19T07:24:36;10.65;;;5.28;;
69392;SDS011;56582;44.624;20.378;2023-09-19T07:27:02;9.10;;;6.10;;
69392;SDS011;56582;44.624;20.378;2023-09-19T07:29:28;11.10;;;5.60;;
69392;SDS011;56582;44.624;20.378;2023-09-19T07:31:53;10.53;;;6.07;;
69392;SDS011;56582;44.624;20.378;2023-09-19T07:34:19;8.80;;;5.40;;
69392;SDS011;56582;44.624;20.378;2023-09-19T07:36:47;11.05;;;5.50;;
69392;SDS011;56582;44.624;20.378;2023-09-19T07:39:13;11.47;;;6.20;;
69392;SDS011;56582;44.624;20.378;2023-09-19T07:41:38;8.27;;;5.68;;
69392;SDS011;56582;44.624;20.378;2023-09-19T07:44:04;10.90;;;6.13;;
69392;SDS011;56582;44.624;20.378;2023-09-19T07:46:29;12.48;;;6.68;;
69392;SDS011;56582;44.624;20.378;2023-09-19T07:48:56;10.50;;;6.30;;
69392;SDS011;56582;44.624;20.378;2023-09-19T07:51:22;8.90;;;5.50;;
69392;SDS011;56582;44.624;20.378;2023-09-19T07:53:48;10.70;;;6.60;;
69392;SDS011;56582;44.624;20.378;2023-09-19T07:56:13;10.23;;;6.37;;
69392;SDS011;56582;44.624;20.378;2023-09-19T07:58:39;10.25;;;6.30;;
69392;SDS011;56582;44.624;20.378;2023-09-19T08:01:09;9.33;;;5.90;;
69392;SDS011;56582;44.624;20.378;2023-09-19T08:03:36;11.30;;;6.38;;
69392;SDS011;56582;44.624;20.378;2023-09-19T08:06:09;11.13;;;6.05;;
69392;SDS011;56582;44.624;20.378;2023-09-19T08:08:35;11.30;;;6.13;;
69392;SDS011;56582;44.624;20.378;2023-09-19T08:11:04;9.23;;;6.15;;
69392;SDS011;56582;44.624;20.378;2023-09-19T08:13:38;10.57;;;5.80;;
69392;SDS011;56582;44.624;20.378;2023-09-19T08:16:08;11.48;;;6.43;;
69392;SDS011;56582;44.624;20.378;2023-09-19T08:18:35;11.27;;;6.53;;
69392;SDS011;56582;44.624;20.378;2023-09-19T08:21:01;11.25;;;6.25;;
69392;SDS011;56582;44.624;20.378;2023-09-19T08:23:27;13.60;;;6.87;;
69392;SDS011;56582;44.624;20.378;2023-09-19T08:25:57;10.88;;;6.20;;
69392;SDS011;56582;44.624;20.378;2023-09-19T08:28:23;10.75;;;6.10;;
69392;SDS011;56582;44.624;20.378;2023-09-19T08:30:49;12.27;;;6.45;;
69392;SDS011;56582;44.624;20.378;2023-09-19T08:33:16;10.88;;;6.50;;
69392;SDS011;56582;44.624;20.378;2023-09-19T08:35:42;11.00;;;6.00;;
69392;SDS011;56582;44.624;20.378;2023-09-19T08:38:09;12.95;;;6.35;;
69392;SDS011;56582;44.624;20.378;2023-09-19T08:40:39;11.70;;;6.20;;
69392;SDS011;56582;44.624;20.378;2023-09-19T08:43:06;12.90;;;6.47;;
69392;SDS011;56582;44.624;20.378;2023-09-19T08:45:33;13.15;;;7.45;;
69392;SDS011;56582;44.624;20.378;2023-09-19T08:50:48;14.82;;;8.13;;
69392;SDS011;56582;44.624;20.378;2023-09-19T08:53:20;11.30;;;7.13;;
69392;SDS011;56582;44.624;20.378;2023-09-19T08:56:08;11.48;;;6.88;;
69392;SDS011;56582;44.624;20.378;2023-09-19T08:58:39;10.00;;;6.13;;
69392;SDS011;56582;44.624;20.378;2023-09-19T09:01:12;14.07;;;6.27;;
69392;SDS011;56582;44.624;20.378;2023-09-19T09:03:40;10.77;;;5.72;;
69392;SDS011;56582;44.624;20.378;2023-09-19T09:06:11;12.15;;;5.93;;
69392;SDS011;56582;44.624;20.378;2023-09-19T09:08:40;12.88;;;5.85;;
69392;SDS011;56582;44.624;20.378;2023-09-19T09:11:06;13.93;;;6.38;;
69392;SDS011;56582;44.624;20.378;2023-09-19T09:13:34;13.43;;;5.93;;
69392;SDS011;56582;44.624;20.378;2023-09-19T09:16:01;13.10;;;6.70;;
69392;SDS011;56582;44.624;20.378;2023-09-19T09:18:28;15.52;;;7.00;;
69392;SDS011;56582;44.624;20.378;2023-09-19T09:20:56;12.40;;;6.67;;
69392;SDS011;56582;44.624;20.378;2023-09-19T09:23:22;12.65;;;6.53;;
69392;SDS011;56582;44.624;20.378;2023-09-19T09:25:52;11.90;;;6.50;;
69392;SDS011;56582;44.624;20.378;2023-09-19T09:28:23;11.70;;;6.33;;
69392;SDS011;56582;44.624;20.378;2023-09-19T09:30:49;13.35;;;6.32;;
69392;SDS011;56582;44.624;20.378;2023-09-19T09:33:16;15.77;;;7.53;;
69392;SDS011;56582;44.624;20.378;2023-09-19T09:38:44;12.85;;;8.00;;
69392;SDS011;56582;44.624;20.378;2023-09-19T09:41:11;12.33;;;7.07;;
69392;SDS011;56582;44.624;20.378;2023-09-19T09:43:40;14.45;;;8.50;;
69392;SDS011;56582;44.624;20.378;2023-09-19T09:46:10;15.75;;;9.45;;
69392;SDS011;56582;44.624;20.378;2023-09-19T09:48:59;16.95;;;8.05;;
69392;SDS011;56582;44.624;20.378;2023-09-19T09:51:57;16.67;;;9.10;;
69392;SDS011;56582;44.624;20.378;2023-09-19T09:54:28;16.07;;;8.63;;
69392;SDS011;56582;44.624;20.378;2023-09-19T10:04:58;11.30;;;6.15;;
69392;SDS011;56582;44.624;20.378;2023-09-19T10:07:39;10.37;;;5.53;;
69392;SDS011;56582;44.624;20.378;2023-09-19T10:10:07;9.95;;;5.88;;
69392;SDS011;56582;44.624;20.378;2023-09-19T10:12:48;12.70;;;6.13;;
69392;SDS011;56582;44.624;20.378;2023-09-19T10:15:16;9.95;;;6.13;;
69392;SDS011;56582;44.624;20.378;2023-09-19T10:17:45;12.48;;;6.28;;
69392;SDS011;56582;44.624;20.378;2023-09-19T10:20:15;11.10;;;6.03;;
69392;SDS011;56582;44.624;20.378;2023-09-19T10:23:08;11.18;;;6.25;;
69392;SDS011;56582;44.624;20.378;2023-09-19T10:25:40;12.23;;;6.18;;
69392;SDS011;56582;44.624;20.378;2023-09-19T10:28:07;12.18;;;6.13;;
69392;SDS011;56582;44.624;20.378;2023-09-19T10:30:42;12.10;;;6.75;;
69392;SDS011;56582;44.624;20.378;2023-09-19T10:33:13;12.10;;;6.40;;
69392;SDS011;56582;44.624;20.378;2023-09-19T10:35:44;11.30;;;6.80;;
69392;SDS011;56582;44.624;20.378;2023-09-19T10:38:12;11.35;;;5.80;;
69392;SDS011;56582;44.624;20.378;2023-09-19T10:40:39;9.95;;;5.95;;
69392;SDS011;56582;44.624;20.378;2023-09-19T10:43:21;12.45;;;6.38;;
69392;SDS011;56582;44.624;20.378;2023-09-19T10:45:51;10.97;;;6.13;;
69392;SDS011;56582;44.624;20.378;2023-09-19T10:48:20;14.48;;;6.07;;
69392;SDS011;56582;44.624;20.378;2023-09-19T10:51:06;10.40;;;6.30;;
69392;SDS011;56582;44.624;20.378;2023-09-19T10:56:36;11.23;;;6.32;;
69392;SDS011;56582;44.624;20.378;2023-09-19T10:59:12;13.13;;;6.00;;
69392;SDS011;56582;44.624;20.378;2023-09-19T11:01:46;13.65;;;6.45;;
69392;SDS011;56582;44.624;20.378;2023-09-19T11:04:23;14.02;;;6.55;;
69392;SDS011;56582;44.624;20.378;2023-09-19T11:07:09;15.20;;;6.63;;
69392;SDS011;56582;44.624;20.378;2023-09-19T11:12:08;12.33;;;6.37;;
69392;SDS011;56582;44.624;20.378;2023-09-19T11:14:40;14.68;;;6.35;;
69392;SDS011;56582;44.624;20.378;2023-09-19T11:30:43;18.23;;;6.03;;
69392;SDS011;56582;44.624;20.378;2023-09-19T11:43:54;21.35;;;6.65;;
69392;SDS011;56582;44.624;20.378;2023-09-19T11:49:17;17.67;;;5.53;;
69392;SDS011;56582;44.624;20.378;2023-09-19T11:51:49;16.95;;;5.72;;
69392;SDS011;56582;44.624;20.378;2023-09-19T11:54:19;20.23;;;5.95;;
69392;SDS011;56582;44.624;20.378;2023-09-19T11:56:49;16.75;;;5.22;;
69392;SDS011;56582;44.624;20.378;2023-09-19T11:59:21;20.77;;;5.38;;
69392;SDS011;56582;44.624;20.378;2023-09-19T12:01:52;15.30;;;5.70;;
69392;SDS011;56582;44.624;20.378;2023-09-19T12:07:08;20.98;;;7.40;;
69392;SDS011;56582;44.624;20.378;2023-09-19T12:09:51;32.70;;;13.38;;
69392;SDS011;56582;44.624;20.378;2023-09-19T12:12:36;28.10;;;10.13;;
69392;SDS011;56582;44.624;20.378;2023-09-19T12:15:02;22.37;;;9.27;;
69392;SDS011;56582;44.624;20.378;2023-09-19T12:17:38;24.83;;;9.48;;
69392;SDS011;56582;44.624;20.378;2023-09-19T12:20:06;25.77;;;9.55;;
69392;SDS011;56582;44.624;20.378;2023-09-19T12:22:41;20.37;;;8.20;;
69392;SDS011;56582;44.624;20.378;2023-09-19T12:25:09;16.65;;;7.88;;
69392;SDS011;56582;44.624;20.378;2023-09-19T12:27:46;18.10;;;7.65;;
69392;SDS011;56582;44.624;20.378;2023-09-19T12:30:14;19.65;;;7.10;;
69392;SDS011;56582;44.624;20.378;2023-09-19T12:32:43;18.75;;;8.23;;
69392;SDS011;56582;44.624;20.378;2023-09-19T12:35:09;19.87;;;8.50;;
69392;SDS011;56582;44.624;20.378;2023-09-19T12:37:45;18.50;;;8.77;;
69392;SDS011;56582;44.624;20.378;2023-09-19T12:40:18;18.58;;;8.88;;
69392;SDS011;56582;44.624;20.378;2023-09-19T12:42:53;19.83;;;8.38;;
69392;SDS011;56582;44.624;20.378;2023-09-19T12:45:27;16.13;;;8.68;;
69392;SDS011;56582;44.624;20.378;2023-09-19T12:53:34;22.90;;;8.30;;
69392;SDS011;56582;44.624;20.378;2023-09-19T12:56:15;17.60;;;7.75;;
69392;SDS011;56582;44.624;20.378;2023-09-19T12:58:52;22.17;;;9.25;;
69392;SDS011;56582;44.624;20.378;2023-09-19T13:01:22;20.97;;;8.77;;
69392;SDS011;56582;44.624;20.378;2023-09-19T13:06:43;21.00;;;8.43;;
69392;SDS011;56582;44.624;20.378;2023-09-19T13:09:10;22.10;;;8.88;;
69392;SDS011;56582;44.624;20.378;2023-09-19T13:11:37;22.50;;;9.55;;
69392;SDS011;56582;44.624;20.378;2023-09-19T13:25:07;23.45;;;7.22;;
69392;SDS011;56582;44.624;20.378;2023-09-19T13:27:43;16.83;;;6.47;;
69392;SDS011;56582;44.624;20.378;2023-09-19T13:30:10;20.50;;;7.32;;
69392;SDS011;56582;44.624;20.378;2023-09-19T13:32:37;23.65;;;8.18;;
69392;SDS011;56582;44.624;20.378;2023-09-19T13:35:03;18.63;;;7.35;;
69392;SDS011;56582;44.624;20.378;2023-09-19T13:37:30;21.00;;;8.10;;
69392;SDS011;56582;44.624;20.378;2023-09-19T13:39:56;21.13;;;7.17;;
69392;SDS011;56582;44.624;20.378;2023-09-19T13:42:23;23.20;;;7.90;;
69392;SDS011;56582;44.624;20.378;2023-09-19T13:44:50;18.33;;;6.72;;
69392;SDS011;56582;44.624;20.378;2023-09-19T13:47:16;19.45;;;7.90;;
69392;SDS011;56582;44.624;20.378;2023-09-19T13:49:49;17.33;;;7.65;;
69392;SDS011;56582;44.624;20.378;2023-09-19T13:52:18;22.33;;;7.40;;
69392;SDS011;56582;44.624;20.378;2023-09-19T13:54:44;22.63;;;7.05;;
69392;SDS011;56582;44.624;20.378;2023-09-19T13:57:09;29.17;;;8.27;;
69392;SDS011;56582;44.624;20.378;2023-09-19T13:59:35;21.13;;;8.15;;
69392;SDS011;56582;44.624;20.378;2023-09-19T14:02:00;25.57;;;7.73;;
69392;SDS011;56582;44.624;20.378;2023-09-19T14:04:28;22.33;;;7.95;;
69392;SDS011;56582;44.624;20.378;2023-09-19T14:06:54;20.73;;;7.53;;
69392;SDS011;56582;44.624;20.378;2023-09-19T14:09:19;23.30;;;8.77;;
69392;SDS011;56582;44.624;20.378;2023-09-19T14:11:46;27.02;;;8.48;;
69392;SDS011;56582;44.624;20.378;2023-09-19T14:14:13;26.87;;;8.43;;
69392;SDS011;56582;44.624;20.378;2023-09-19T14:16:38;22.02;;;7.75;;
69392;SDS011;56582;44.624;20.378;2023-09-19T14:19:05;20.05;;;8.93;;
69392;SDS011;56582;44.624;20.378;2023-09-19T14:21:33;26.37;;;9.50;;
69392;SDS011;56582;44.624;20.378;2023-09-19T14:23:58;20.73;;;7.30;;
69392;SDS011;56582;44.624;20.378;2023-09-19T14:26:24;18.43;;;6.23;;
69392;SDS011;56582;44.624;20.378;2023-09-19T14:28:49;13.50;;;6.10;;
69392;SDS011;56582;44.624;20.378;2023-09-19T14:31:15;17.10;;;6.57;;
69392;SDS011;56582;44.624;20.378;2023-09-19T14:33:40;14.93;;;6.80;;
69392;SDS011;56582;44.624;20.378;2023-09-19T14:36:07;19.75;;;6.40;;
69392;SDS011;56582;44.624;20.378;2023-09-19T14:38:35;16.40;;;6.70;;
69392;SDS011;56582;44.624;20.378;2023-09-19T14:41:03;19.57;;;6.77;;
69392;SDS011;56582;44.624;20.378;2023-09-19T14:43:29;19.30;;;6.68;;
69392;SDS011;56582;44.624;20.378;2023-09-19T14:45:56;18.55;;;7.18;;
69392;SDS011;56582;44.624;20.378;2023-09-19T14:48:24;18.73;;;5.75;;
69392;SDS011;56582;44.624;20.378;2023-09-19T14:50:51;18.55;;;6.43;;
69392;SDS011;56582;44.624;20.378;2023-09-19T14:53:17;18.27;;;8.33;;
69392;SDS011;56582;44.624;20.378;2023-09-19T14:55:43;21.27;;;8.02;;
69392;SDS011;56582;44.624;20.378;2023-09-19T14:58:10;26.50;;;8.43;;
69392;SDS011;56582;44.624;20.378;2023-09-19T15:00:37;19.95;;;8.32;;
69392;SDS011;56582;44.624;20.378;2023-09-19T15:03:03;25.00;;;8.63;;
69392;SDS011;56582;44.624;20.378;2023-09-19T15:05:29;19.23;;;8.07;;
69392;SDS011;56582;44.624;20.378;2023-09-19T15:07:55;22.75;;;8.95;;
69392;SDS011;56582;44.624;20.378;2023-09-19T15:10:22;28.58;;;8.68;;
69392;SDS011;56582;44.624;20.378;2023-09-19T15:12:48;19.95;;;8.73;;
69392;SDS011;56582;44.624;20.378;2023-09-19T15:15:13;20.50;;;8.93;;
69392;SDS011;56582;44.624;20.378;2023-09-19T15:17:39;16.27;;;7.05;;
69392;SDS011;56582;44.624;20.378;2023-09-19T15:20:05;22.57;;;7.37;;
69392;SDS011;56582;44.624;20.378;2023-09-19T15:22:35;17.33;;;8.13;;
69392;SDS011;56582;44.624;20.378;2023-09-19T15:25:01;18.02;;;8.07;;
69392;SDS011;56582;44.624;20.378;2023-09-19T15:27:27;18.48;;;8.32;;
69392;SDS011;56582;44.624;20.378;2023-09-19T15:29:56;21.40;;;8.27;;
69392;SDS011;56582;44.624;20.378;2023-09-19T15:32:23;23.10;;;7.88;;
69392;SDS011;56582;44.624;20.378;2023-09-19T15:34:49;21.38;;;8.57;;
69392;SDS011;56582;44.624;20.378;2023-09-19T15:37:15;20.23;;;8.93;;
69392;SDS011;56582;44.624;20.378;2023-09-19T15:39:40;19.15;;;9.75;;
69392;SDS011;56582;44.624;20.378;2023-09-19T15:42:07;22.98;;;9.65;;
69392;SDS011;56582;44.624;20.378;2023-09-19T15:44:32;19.73;;;9.40;;
69392;SDS011;56582;44.624;20.378;2023-09-19T15:46:58;16.95;;;7.63;;
69392;SDS011;56582;44.624;20.378;2023-09-19T15:49:24;17.58;;;6.78;;
69392;SDS011;56582;44.624;20.378;2023-09-19T15:51:50;18.07;;;7.97;;
69392;SDS011;56582;44.624;20.378;2023-09-19T15:54:16;24.13;;;8.73;;
69392;SDS011;56582;44.624;20.378;2023-09-19T15:56:43;31.73;;;11.50;;